createdAt,value
2019-05-25T00:00:10.631Z,2.30
2019-05-25T00:02:39.735Z,2.03
2019-05-25T00:05:08.935Z,2.83
2019-05-25T00:07:38.327Z,2.30
2019-05-25T00:10:08.529Z,2.53
2019-05-25T00:12:37.617Z,2.10
2019-05-25T00:15:07.820Z,2.33
2019-05-25T00:17:36.698Z,2.10
2019-05-25T00:20:06.889Z,2.40
2019-05-25T00:22:36.068Z,2.20
2019-05-25T00:25:06.696Z,1.97
2019-05-25T00:27:35.800Z,2.30
2019-05-25T00:30:06.812Z,2.47
2019-05-25T00:32:36.033Z,1.90
2019-05-25T00:35:06.338Z,2.70
2019-05-25T00:37:35.569Z,2.10
2019-05-25T00:40:07.738Z,2.27
2019-05-25T00:42:36.820Z,2.40
2019-05-25T00:45:07.348Z,2.40
2019-05-25T00:47:36.448Z,2.60
2019-05-25T00:50:08.728Z,2.40
2019-05-25T00:52:37.730Z,2.50
2019-05-25T00:55:08.287Z,2.70
2019-05-25T00:57:37.535Z,2.63
2019-05-25T01:00:10.014Z,2.57
2019-05-25T01:02:41.243Z,2.37
2019-05-25T01:05:11.305Z,2.20
2019-05-25T01:07:40.813Z,2.00
2019-05-25T01:10:10.655Z,2.37
2019-05-25T01:12:39.990Z,2.43
2019-05-25T01:15:10.664Z,2.67
2019-05-25T01:17:39.929Z,2.23
2019-05-25T01:20:10.559Z,2.37
2019-05-25T01:22:39.970Z,2.40
2019-05-25T01:25:10.391Z,2.20
2019-05-25T01:27:39.779Z,2.33
2019-05-25T01:30:10.335Z,2.33
2019-05-25T01:32:39.824Z,2.57
2019-05-25T01:35:09.379Z,2.60
2019-05-25T01:37:38.603Z,2.43
2019-05-25T01:40:08.167Z,2.13
2019-05-25T01:42:37.333Z,2.43
2019-05-25T01:45:07.535Z,2.40
2019-05-25T01:47:36.751Z,2.27
2019-05-25T01:50:07.175Z,2.13
2019-05-25T01:52:36.287Z,2.60
2019-05-25T01:55:07.255Z,2.17
2019-05-25T01:57:36.419Z,2.47
2019-05-25T02:00:07.961Z,2.60
2019-05-25T02:02:36.954Z,2.57
2019-05-25T02:05:09.894Z,2.70
2019-05-25T02:07:39.038Z,2.27
2019-05-25T02:10:09.662Z,2.50
2019-05-25T02:12:38.889Z,3.00
2019-05-25T02:17:38.398Z,2.63
2019-05-25T02:20:12.189Z,3.17
2019-05-25T02:22:41.491Z,2.40
2019-05-25T02:25:18.947Z,2.53
2019-05-25T02:27:41.830Z,2.60
2019-05-25T02:30:12.701Z,2.63
2019-05-25T02:32:42.078Z,2.70
2019-05-25T02:35:14.037Z,2.73
2019-05-25T02:37:43.095Z,2.60
2019-05-25T02:40:12.527Z,2.30
2019-05-25T02:42:41.734Z,2.70
2019-05-25T02:45:11.167Z,2.73
2019-05-25T02:47:40.440Z,2.37
2019-05-25T02:50:10.009Z,2.60
2019-05-25T02:52:39.235Z,2.73
2019-05-25T02:55:10.897Z,2.57
2019-05-25T02:57:39.987Z,2.67
2019-05-25T03:00:09.455Z,2.33
2019-05-25T03:02:38.594Z,2.53
2019-05-25T03:05:09.731Z,2.57
2019-05-25T03:07:40.495Z,2.40
2019-05-25T03:10:10.081Z,2.83
2019-05-25T03:12:40.692Z,2.40
2019-05-25T03:15:10.008Z,3.00
2019-05-25T03:17:39.101Z,2.87
2019-05-25T03:20:08.329Z,2.50
2019-05-25T03:22:37.395Z,3.10
2019-05-25T03:25:07.616Z,3.13
2019-05-25T03:27:36.850Z,2.83
2019-05-25T03:30:08.917Z,2.70
2019-05-25T03:32:38.275Z,2.63
2019-05-25T03:35:09.056Z,2.40
2019-05-25T03:37:38.216Z,2.53
2019-05-25T03:40:08.236Z,2.67
2019-05-25T03:42:37.322Z,2.67
2019-05-25T03:45:07.606Z,2.43
2019-05-25T03:47:36.744Z,2.70
2019-05-25T03:50:06.968Z,2.40
2019-05-25T03:52:36.372Z,3.40
2019-05-25T03:55:07.012Z,2.40
2019-05-25T03:57:36.302Z,2.80
2019-05-25T04:00:09.219Z,2.53
2019-05-25T04:02:38.421Z,2.37
2019-05-25T04:05:07.930Z,2.70
2019-05-25T04:07:37.191Z,2.73
2019-05-25T04:10:07.893Z,2.70
2019-05-25T04:12:37.124Z,2.40
2019-05-25T04:15:07.652Z,2.30
2019-05-25T04:17:36.842Z,2.93
2019-05-25T04:20:09.129Z,3.07
2019-05-25T04:22:38.312Z,3.00
2019-05-25T04:25:08.022Z,2.60
2019-05-25T04:27:37.119Z,2.93
2019-05-25T04:30:09.610Z,2.37
2019-05-25T04:32:39.014Z,2.60
2019-05-25T04:35:09.047Z,2.40
2019-05-25T04:37:38.319Z,2.80
2019-05-25T04:40:09.143Z,2.97
2019-05-25T04:42:38.283Z,2.53
2019-05-25T04:45:08.694Z,2.37
2019-05-25T04:47:37.977Z,2.73
2019-05-25T04:50:08.892Z,2.67
2019-05-25T04:52:41.252Z,2.90
2019-05-25T04:55:09.781Z,3.23
2019-05-25T04:57:38.968Z,2.80
2019-05-25T05:00:08.909Z,3.10
2019-05-25T05:02:37.969Z,2.57
2019-05-25T05:05:07.568Z,2.67
2019-05-25T05:07:36.574Z,2.63
2019-05-25T05:10:08.450Z,2.50
2019-05-25T05:12:37.664Z,2.90
2019-05-25T05:15:07.223Z,2.63
2019-05-25T05:17:36.650Z,2.87
2019-05-25T05:20:07.460Z,2.50
2019-05-25T05:22:36.729Z,2.57
2019-05-25T05:25:06.701Z,2.67
2019-05-25T05:27:35.992Z,2.60
2019-05-25T05:30:09.457Z,2.77
2019-05-25T05:32:38.493Z,3.00
2019-05-25T05:35:08.789Z,3.63
2019-05-25T05:37:38.420Z,2.77
2019-05-25T05:40:09.131Z,2.73
2019-05-25T05:42:40.295Z,3.13
2019-05-25T05:45:09.815Z,3.47
2019-05-25T05:47:39.815Z,3.07
2019-05-25T05:50:10.052Z,2.80
2019-05-25T05:52:39.941Z,2.23
2019-05-25T05:55:11.714Z,2.80
2019-05-25T05:57:40.902Z,2.83
2019-05-25T06:00:11.742Z,2.77
2019-05-25T06:02:40.941Z,2.63
2019-05-25T06:05:10.537Z,3.20
2019-05-25T06:07:39.746Z,2.60
2019-05-25T06:10:09.268Z,2.87
2019-05-25T06:12:38.350Z,2.90
2019-05-25T06:15:08.673Z,3.43
2019-05-25T06:17:37.772Z,2.70
2019-05-25T06:20:08.382Z,2.93
2019-05-25T06:22:37.616Z,2.90
2019-05-25T06:25:08.375Z,2.50
2019-05-25T06:27:37.630Z,3.10
2019-05-25T06:30:11.252Z,4.20
2019-05-25T06:32:40.330Z,3.40
2019-05-25T06:35:10.256Z,4.23
2019-05-25T06:37:39.327Z,4.03
2019-05-25T06:40:09.958Z,3.30
2019-05-25T06:42:39.410Z,3.00
2019-05-25T06:45:09.289Z,2.80
2019-05-25T06:47:38.578Z,2.73
2019-05-25T06:50:09.327Z,3.00
2019-05-25T06:52:38.516Z,3.23
2019-05-25T06:55:08.013Z,2.67
2019-05-25T06:57:43.172Z,3.00
2019-05-25T07:00:09.853Z,2.50
2019-05-25T07:02:39.337Z,2.70
2019-05-25T07:05:09.610Z,2.60
2019-05-25T07:07:38.732Z,3.03
2019-05-25T07:10:12.403Z,3.00
2019-05-25T07:12:41.504Z,3.23
2019-05-25T07:15:11.211Z,2.67
2019-05-25T07:17:40.175Z,3.00
2019-05-25T07:20:10.498Z,2.80
2019-05-25T07:22:39.749Z,2.90
2019-05-25T07:25:09.456Z,2.87
2019-05-25T07:27:38.893Z,2.90
2019-05-25T07:30:11.658Z,2.70
2019-05-25T07:32:40.949Z,3.30
2019-05-25T07:35:11.328Z,2.70
2019-05-25T07:37:40.559Z,3.10
2019-05-25T07:40:10.033Z,2.67
2019-05-25T07:42:39.161Z,2.67
2019-05-25T07:45:09.609Z,3.10
2019-05-25T07:47:38.893Z,2.67
2019-05-25T07:50:12.220Z,3.10
2019-05-25T07:52:41.358Z,3.20
2019-05-25T07:55:10.533Z,3.20
2019-05-25T07:57:39.674Z,3.00
2019-05-25T08:00:09.539Z,3.30
2019-05-25T08:02:38.817Z,3.07
2019-05-25T08:05:08.617Z,2.73
2019-05-25T08:07:37.891Z,3.23
2019-05-25T08:10:11.194Z,2.80
2019-05-25T08:12:37.834Z,2.90
2019-05-25T08:15:07.740Z,2.90
2019-05-25T08:17:38.177Z,3.10
2019-05-25T08:20:07.770Z,3.20
2019-05-25T08:22:37.185Z,3.47
2019-05-25T08:25:07.852Z,3.27
2019-05-25T08:27:36.821Z,3.60
2019-05-25T08:30:10.819Z,3.17
2019-05-25T08:32:40.119Z,3.10
2019-05-25T08:35:09.538Z,3.27
2019-05-25T08:37:38.726Z,3.60
2019-05-25T08:40:08.968Z,3.27
2019-05-25T08:42:38.240Z,2.90
2019-05-25T08:45:08.329Z,3.37
2019-05-25T08:47:37.423Z,3.17
2019-05-25T08:50:14.134Z,3.10
2019-05-25T08:52:43.226Z,2.43
2019-05-25T08:55:12.822Z,2.90
2019-05-25T08:57:41.926Z,2.60
2019-05-25T09:00:11.237Z,2.43
2019-05-25T09:02:40.415Z,2.70
2019-05-25T09:05:09.973Z,2.70
2019-05-25T09:07:38.975Z,3.07
2019-05-25T09:10:11.592Z,3.00
2019-05-25T09:12:40.699Z,2.43
2019-05-25T09:15:10.414Z,2.90
2019-05-25T09:17:39.609Z,2.60
2019-05-25T09:20:09.466Z,2.20
2019-05-25T09:22:38.616Z,2.90
2019-05-25T09:25:09.372Z,2.93
2019-05-25T09:27:38.528Z,2.50
2019-05-25T09:30:10.717Z,2.50
2019-05-25T09:32:39.707Z,2.60
2019-05-25T09:35:09.180Z,2.33
2019-05-25T09:37:37.073Z,2.50
2019-05-25T09:40:07.462Z,1.90
2019-05-25T09:42:36.813Z,2.80
2019-05-25T09:45:08.661Z,2.17
2019-05-25T09:47:37.804Z,2.40
2019-05-25T09:50:07.579Z,2.27
2019-05-25T09:52:36.977Z,2.50
2019-05-25T09:55:09.137Z,2.20
2019-05-25T09:57:41.337Z,2.37
2019-05-25T10:00:11.527Z,2.43
2019-05-25T10:02:40.898Z,2.30
2019-05-25T10:05:10.656Z,2.20
2019-05-25T10:07:39.944Z,2.60
2019-05-25T10:10:09.685Z,2.40
2019-05-25T10:12:39.259Z,2.30
2019-05-25T10:15:10.505Z,2.13
2019-05-25T10:17:39.504Z,2.10
2019-05-25T10:20:09.941Z,2.03
2019-05-25T10:22:39.255Z,2.60
2019-05-25T10:25:10.065Z,2.10
2019-05-25T10:27:39.164Z,2.20
2019-05-25T10:30:10.008Z,2.17
2019-05-25T10:32:39.198Z,2.43
2019-05-25T10:35:09.337Z,2.20
2019-05-25T10:37:38.608Z,2.67
2019-05-25T10:40:09.542Z,2.87
2019-05-25T10:42:38.653Z,2.90
2019-05-25T10:45:09.734Z,3.10
2019-05-25T10:47:39.137Z,3.00
2019-05-25T10:50:12.891Z,2.97
2019-05-25T10:52:41.833Z,3.50
2019-05-25T10:55:11.614Z,3.27
2019-05-25T10:57:40.787Z,3.53
2019-05-25T11:00:11.450Z,3.40
2019-05-25T11:02:40.705Z,3.10
2019-05-25T11:05:10.447Z,3.00
2019-05-25T11:07:39.863Z,2.70
2019-05-25T11:10:10.294Z,2.80
2019-05-25T11:12:39.777Z,2.67
2019-05-25T11:15:11.016Z,3.07
2019-05-25T11:17:40.236Z,2.67
2019-05-25T11:20:11.168Z,2.40
2019-05-25T11:22:40.547Z,2.90
2019-05-25T11:25:10.549Z,3.20
2019-05-25T11:27:39.669Z,2.57
2019-05-25T11:30:10.773Z,2.80
2019-05-25T11:32:40.132Z,2.77
2019-05-25T11:35:09.853Z,3.13
2019-05-25T11:37:38.733Z,2.70
2019-05-25T11:40:09.093Z,2.43
2019-05-25T11:42:38.333Z,2.60
2019-05-25T11:45:08.811Z,2.87
2019-05-25T11:47:38.073Z,2.77
2019-05-25T11:50:09.252Z,2.60
2019-05-25T11:52:38.840Z,2.50
2019-05-25T11:55:08.490Z,2.13
2019-05-25T11:57:37.734Z,2.27
2019-05-25T12:00:24.165Z,3.07
2019-05-25T12:02:46.276Z,2.53
2019-05-25T12:05:15.967Z,2.20
2019-05-25T12:07:45.274Z,2.23
2019-05-25T12:10:17.535Z,2.00
2019-05-25T12:12:47.015Z,1.97
2019-05-25T12:15:16.932Z,2.10
2019-05-25T12:17:46.173Z,1.77
2019-05-25T12:20:15.934Z,1.67
2019-05-25T12:22:45.168Z,1.90
2019-05-25T12:25:14.297Z,2.20
2019-05-25T12:27:43.488Z,1.80
2019-05-25T12:30:18.083Z,2.37
2019-05-25T12:32:47.286Z,2.03
2019-05-25T12:35:18.736Z,1.90
2019-05-25T12:37:47.821Z,2.30
2019-05-25T12:40:16.939Z,2.03
2019-05-25T12:42:46.092Z,2.30
2019-05-25T12:45:15.930Z,2.17
2019-05-25T12:47:45.641Z,2.50
2019-05-25T12:50:17.377Z,2.33
2019-05-25T12:52:46.556Z,2.70
2019-05-25T12:55:15.812Z,2.53
2019-05-25T12:57:44.987Z,2.47
2019-05-25T13:00:16.448Z,2.47
2019-05-25T13:02:45.231Z,1.80
2019-05-25T13:05:14.983Z,2.10
2019-05-25T13:07:44.136Z,2.00
2019-05-25T13:10:11.890Z,1.80
2019-05-25T13:12:40.888Z,1.97
2019-05-25T13:15:10.211Z,2.00
2019-05-25T13:17:39.292Z,1.90
2019-05-25T13:20:08.662Z,2.00
2019-05-25T13:22:37.793Z,2.10
2019-05-25T13:25:07.974Z,2.07
2019-05-25T13:27:37.304Z,1.77
2019-05-25T13:30:08.052Z,1.60
2019-05-25T13:32:37.019Z,1.63
2019-05-25T13:35:07.569Z,2.03
2019-05-25T13:37:36.867Z,1.57
2019-05-25T13:40:07.450Z,1.73
2019-05-25T13:42:36.603Z,1.70
2019-05-25T13:45:07.425Z,1.80
2019-05-25T13:47:36.386Z,1.60
2019-05-25T13:50:10.031Z,1.90
2019-05-25T13:52:39.011Z,1.50
2019-05-25T13:55:08.690Z,2.23
2019-05-25T13:57:37.885Z,1.93
2019-05-25T14:00:07.915Z,1.97
2019-05-25T14:02:37.014Z,1.90
2019-05-25T14:05:07.446Z,1.40
2019-05-25T14:07:36.560Z,1.77
2019-05-25T14:10:07.652Z,1.67
2019-05-25T14:12:36.572Z,1.40
2019-05-25T14:15:09.402Z,1.63
2019-05-25T14:17:38.540Z,1.83
2019-05-25T14:20:08.578Z,1.80
2019-05-25T14:22:37.687Z,1.77
2019-05-25T14:25:08.449Z,2.10
2019-05-25T14:27:37.647Z,2.27
2019-05-25T14:30:07.627Z,2.50
2019-05-25T14:32:36.851Z,2.27
2019-05-25T14:35:06.330Z,1.93
2019-05-25T14:37:35.532Z,1.80
2019-05-25T14:40:10.887Z,2.30
2019-05-25T14:42:37.919Z,2.17
2019-05-25T14:45:08.340Z,2.40
2019-05-25T14:47:37.336Z,2.10
2019-05-25T14:50:08.848Z,2.70
2019-05-25T14:52:38.093Z,2.10
2019-05-25T14:55:10.071Z,2.00
2019-05-25T14:57:39.253Z,2.83
2019-05-25T15:00:09.335Z,2.20
2019-05-25T15:02:38.477Z,2.57
2019-05-25T15:05:07.768Z,2.30
2019-05-25T15:07:36.967Z,2.30
2019-05-25T15:10:07.512Z,2.70
2019-05-25T15:12:36.796Z,2.13
2019-05-25T15:15:07.792Z,2.50
2019-05-25T15:17:37.561Z,2.60
2019-05-25T15:20:08.738Z,2.43
2019-05-25T15:22:37.896Z,2.10
2019-05-25T15:25:08.231Z,2.43
2019-05-25T15:27:37.427Z,2.50
2019-05-25T15:30:07.659Z,2.90
2019-05-25T15:32:36.971Z,2.20
2019-05-25T15:35:07.561Z,2.70
2019-05-25T15:37:36.660Z,2.47
2019-05-25T15:40:11.802Z,2.30
2019-05-25T15:42:40.991Z,2.13
2019-05-25T15:45:10.729Z,2.90
2019-05-25T15:47:39.927Z,2.50
2019-05-25T15:50:11.559Z,2.40
2019-05-25T15:52:40.870Z,2.37
2019-05-25T15:55:10.460Z,2.30
2019-05-25T15:57:39.460Z,2.67
2019-05-25T16:00:11.021Z,2.70
2019-05-25T16:02:40.104Z,2.83
2019-05-25T16:05:09.853Z,2.50
2019-05-25T16:07:44.446Z,2.17
2019-05-25T16:10:13.899Z,2.43
2019-05-25T16:12:43.045Z,2.40
2019-05-25T16:15:12.335Z,2.30
2019-05-25T16:17:41.778Z,2.53
2019-05-25T16:20:11.139Z,2.90
2019-05-25T16:22:40.452Z,2.67
2019-05-25T16:25:09.650Z,3.40
2019-05-25T16:27:38.738Z,2.60
2019-05-25T16:30:08.105Z,2.47
2019-05-25T16:33:10.075Z,2.33
2019-05-25T16:35:08.374Z,2.57
2019-05-25T16:37:37.852Z,2.60
2019-05-25T16:40:08.078Z,2.60
2019-05-25T16:42:37.333Z,2.40
2019-05-25T16:45:08.286Z,2.07
2019-05-25T16:47:37.542Z,2.67
2019-05-25T16:50:08.072Z,2.40
2019-05-25T16:52:37.391Z,2.57
2019-05-25T16:55:07.306Z,2.70
2019-05-25T16:57:36.495Z,2.67
2019-05-25T17:00:07.447Z,2.37
2019-05-25T17:02:36.609Z,2.27
2019-05-25T17:05:06.056Z,2.47
2019-05-25T17:07:35.137Z,2.40
2019-05-25T17:10:06.263Z,3.10
2019-05-25T17:12:35.344Z,3.17
2019-05-25T17:15:06.715Z,2.57
2019-05-25T17:17:35.904Z,2.70
2019-05-25T17:20:06.939Z,2.97
2019-05-25T17:22:39.327Z,3.10
2019-05-25T17:25:09.495Z,2.60
2019-05-25T17:27:38.891Z,2.87
2019-05-25T17:30:08.664Z,2.30
2019-05-25T17:32:38.056Z,2.73
2019-05-25T17:35:07.622Z,3.07
2019-05-25T17:37:36.859Z,3.00
2019-05-25T17:40:07.663Z,2.40
2019-05-25T17:42:36.853Z,2.53
2019-05-25T17:45:07.350Z,2.60
2019-05-25T17:47:36.343Z,2.80
2019-05-25T17:50:06.820Z,2.70
2019-05-25T17:52:35.946Z,2.67
2019-05-25T17:55:07.051Z,2.83
2019-05-25T17:57:36.129Z,3.10
2019-05-25T18:00:07.623Z,3.10
2019-05-25T18:02:36.727Z,2.63
2019-05-25T18:05:09.130Z,2.60
2019-05-25T18:07:38.495Z,2.97
2019-05-25T18:10:11.177Z,3.80
2019-05-25T18:12:40.196Z,3.63
2019-05-25T18:15:08.140Z,3.37
2019-05-25T18:17:37.240Z,3.20
2019-05-25T18:20:11.086Z,3.43
2019-05-25T18:22:40.244Z,3.30
2019-05-25T18:25:09.841Z,3.27
2019-05-25T18:27:38.945Z,3.10
2019-05-25T18:30:09.992Z,3.73
2019-05-25T18:32:39.093Z,3.30
2019-05-25T18:35:10.021Z,3.03
2019-05-25T18:37:39.208Z,2.87
2019-05-25T18:40:10.261Z,2.60
2019-05-25T18:42:39.450Z,2.90
2019-05-25T18:45:09.187Z,4.10
2019-05-25T18:47:38.366Z,3.70
2019-05-25T18:50:09.388Z,3.23
2019-05-25T18:52:38.534Z,3.47
2019-05-25T18:55:09.239Z,3.67
2019-05-25T18:57:37.611Z,3.87
2019-05-25T19:00:08.827Z,3.57
2019-05-25T19:02:38.053Z,3.93
2019-05-25T19:05:08.420Z,3.43
2019-05-25T19:07:37.409Z,3.40
2019-05-25T19:10:10.048Z,3.40
2019-05-25T19:12:39.038Z,3.60
2019-05-25T19:15:12.135Z,3.40
2019-05-25T19:17:41.222Z,3.40
2019-05-25T19:20:10.920Z,3.30
2019-05-25T19:22:40.131Z,2.87
2019-05-25T19:25:09.840Z,2.47
2019-05-25T19:27:38.940Z,2.73
2019-05-25T19:30:08.903Z,2.53
2019-05-25T19:32:38.154Z,2.27
2019-05-25T19:35:08.069Z,2.10
2019-05-25T19:37:37.173Z,2.13
2019-05-25T19:40:09.155Z,2.50
2019-05-25T19:42:38.021Z,2.40
2019-05-25T19:45:09.657Z,2.27
2019-05-25T19:47:38.891Z,2.07
2019-05-25T19:50:08.663Z,2.33
2019-05-25T19:52:37.886Z,2.13
2019-05-25T19:55:08.648Z,2.40
2019-05-25T19:57:37.819Z,2.30
2019-05-25T20:00:08.072Z,2.80
2019-05-25T20:02:37.128Z,3.23
2019-05-25T20:05:16.395Z,3.00
2019-05-25T20:07:39.008Z,2.37
2019-05-25T20:10:08.954Z,2.53
2019-05-25T20:12:38.265Z,3.00
2019-05-25T20:15:08.569Z,2.63
2019-05-25T20:17:37.748Z,3.20
2019-05-25T20:20:09.340Z,2.70
2019-05-25T20:22:38.500Z,3.30
2019-05-25T20:25:07.856Z,3.00
2019-05-25T20:27:37.097Z,3.20
2019-05-25T20:30:07.469Z,3.20
2019-05-25T20:32:36.611Z,2.97
2019-05-25T20:35:07.302Z,3.17
2019-05-25T20:37:36.545Z,3.20
2019-05-25T20:40:07.875Z,2.90
2019-05-25T20:42:37.403Z,2.70
2019-05-25T20:45:08.349Z,2.70
2019-05-25T20:47:37.438Z,2.70
2019-05-25T20:50:08.581Z,2.43
2019-05-25T20:52:37.681Z,2.50
2019-05-25T20:55:07.593Z,3.00
2019-05-25T20:57:36.642Z,2.50
2019-05-25T21:00:10.343Z,2.90
2019-05-25T21:02:39.592Z,3.07
2019-05-25T21:05:08.980Z,3.03
2019-05-25T21:07:38.085Z,3.60
2019-05-25T21:10:07.290Z,3.97
2019-05-25T21:12:36.491Z,4.67
2019-05-25T21:15:07.729Z,4.10
2019-05-25T21:17:36.932Z,4.27
2019-05-25T21:20:06.890Z,4.80
2019-05-25T21:22:35.861Z,4.43
2019-05-25T21:25:09.171Z,5.57
2019-05-25T21:27:38.218Z,4.70
2019-05-25T21:30:09.740Z,4.83
2019-05-25T21:32:38.981Z,5.10
2019-05-25T21:35:08.852Z,4.80
2019-05-25T21:37:38.183Z,5.27
2019-05-25T21:40:08.774Z,4.97
2019-05-25T21:42:37.918Z,5.20
2019-05-25T21:45:08.135Z,4.90
2019-05-25T21:47:37.133Z,4.60
2019-05-25T21:50:07.611Z,5.00
2019-05-25T21:52:37.263Z,5.07
2019-05-25T21:55:06.382Z,4.63
2019-05-25T21:57:35.581Z,5.50
2019-05-25T22:00:07.856Z,5.27
2019-05-25T22:02:37.091Z,4.70
2019-05-25T22:05:06.980Z,5.03
2019-05-25T22:07:36.139Z,5.27
2019-05-25T22:10:05.851Z,5.73
2019-05-25T22:12:34.986Z,5.33
2019-05-25T22:15:05.143Z,4.80
2019-05-25T22:17:34.266Z,4.83
2019-05-25T22:20:03.613Z,4.70
2019-05-25T22:22:35.825Z,4.40
2019-05-25T22:25:06.453Z,4.40
2019-05-25T22:27:35.689Z,4.90
2019-05-25T22:30:09.021Z,4.83
2019-05-25T22:32:37.986Z,4.97
2019-05-25T22:35:08.299Z,4.93
2019-05-25T22:37:37.467Z,4.80
2019-05-25T22:40:08.087Z,4.63
2019-05-25T22:42:37.090Z,5.27
2019-05-25T22:45:07.654Z,5.37
2019-05-25T22:47:36.813Z,5.50
2019-05-25T22:50:06.736Z,5.37
2019-05-25T22:52:35.930Z,5.20
2019-05-25T22:55:06.772Z,5.00
2019-05-25T22:57:35.869Z,4.87
2019-05-25T23:00:09.376Z,5.60
2019-05-25T23:02:38.574Z,5.07
2019-05-25T23:05:08.651Z,5.00
2019-05-25T23:07:37.912Z,5.47
2019-05-25T23:10:10.651Z,5.70
2019-05-25T23:12:39.755Z,5.90
2019-05-25T23:15:10.024Z,5.47
2019-05-25T23:17:39.689Z,5.50
2019-05-25T23:20:10.134Z,5.67
2019-05-25T23:22:39.512Z,5.60
2019-05-25T23:25:08.736Z,5.40
2019-05-25T23:27:38.210Z,5.53
2019-05-25T23:30:08.017Z,5.07
2019-05-25T23:32:37.122Z,5.13
2019-05-25T23:35:06.850Z,5.57
2019-05-25T23:37:36.039Z,5.27
2019-05-25T23:40:08.849Z,5.77
2019-05-25T23:42:38.056Z,5.67
2019-05-25T23:45:07.733Z,5.27
2019-05-25T23:47:37.014Z,6.00
2019-05-25T23:50:09.489Z,5.87
2019-05-25T23:52:38.576Z,5.87
2019-05-25T23:55:08.071Z,5.57
2019-05-25T23:57:38.224Z,5.13
